createdAt,value
2022-10-11T00:06:47.380Z,8.2
2022-10-11T00:16:47.912Z,8.2
2022-10-11T00:26:48.971Z,8.1
2022-10-11T00:36:49.556Z,8
2022-10-11T00:46:51.777Z,7.9
2022-10-11T00:56:49.929Z,7.9
2022-10-11T01:06:50.410Z,7.8
2022-10-11T01:16:50.585Z,7.8
2022-10-11T01:26:51.307Z,7.8
2022-10-11T01:46:52.612Z,7.7
2022-10-11T01:56:53.513Z,7.8
2022-10-11T02:06:54.350Z,7.6
2022-10-11T02:16:55.296Z,7.6
2022-10-11T02:26:55.982Z,7.5
2022-10-11T02:36:56.913Z,7.3
2022-10-11T02:46:57.394Z,7.3
2022-10-11T02:56:58.019Z,7.2
2022-10-11T03:06:58.096Z,7.1
2022-10-11T03:17:12.240Z,7
2022-10-11T03:26:59.242Z,7
2022-10-11T03:37:00.169Z,7
2022-10-11T03:57:01.581Z,6.8
2022-10-11T04:07:01.939Z,6.9
2022-10-11T04:17:03.040Z,6.8
2022-10-11T04:37:03.933Z,6.9
2022-10-11T04:47:04.637Z,6.7
2022-10-11T05:17:05.476Z,6.7
2022-10-11T05:27:05.767Z,6.9
2022-10-11T05:37:06.454Z,6.6
2022-10-11T05:57:08.081Z,6.7
2022-10-11T06:07:08.199Z,6.8
2022-10-11T06:17:09.184Z,7.1
2022-10-11T06:37:10.087Z,7.3
2022-10-11T06:47:10.154Z,7.5
2022-10-11T06:57:11.027Z,7.8
2022-10-11T07:07:12.099Z,8
2022-10-11T07:17:12.632Z,8.4
2022-10-11T07:27:13.271Z,8.6
2022-10-11T07:37:13.951Z,8.9
2022-10-11T07:47:14.575Z,9.2
2022-10-11T07:57:15.329Z,9.5
2022-10-11T08:07:15.745Z,9.9
2022-10-11T08:17:15.871Z,10.2
2022-10-11T08:57:18.396Z,11.5
2022-10-11T09:17:19.897Z,12
2022-10-11T09:27:29.062Z,12.3
2022-10-11T09:37:20.961Z,12.5
2022-10-11T09:57:21.629Z,13.1
2022-10-11T10:07:22.608Z,13.5
2022-10-11T10:17:23.262Z,13.3
2022-10-11T10:27:23.533Z,13.8
2022-10-11T10:37:23.893Z,14.1
2022-10-11T10:47:24.862Z,13.8
2022-10-11T10:57:25.051Z,13.7
2022-10-11T11:07:25.841Z,13.8
2022-10-11T11:27:27.324Z,14.2
2022-10-11T11:37:27.964Z,14.8
2022-10-11T11:47:28.226Z,15.5
2022-10-11T11:57:28.957Z,15.2
2022-10-11T12:17:29.722Z,15.1
2022-10-11T12:27:30.767Z,15
2022-10-11T12:37:31.322Z,14.5
2022-10-11T12:57:31.869Z,14.1
2022-10-11T13:07:32.157Z,14.1
2022-10-11T13:17:35.877Z,14.1
2022-10-11T13:27:33.240Z,14.6
2022-10-11T13:37:33.635Z,14.7
2022-10-11T13:47:33.721Z,14.8
2022-10-11T13:47:55.651Z,14.8
2022-10-11T13:57:39.942Z,14.7
2022-10-11T14:07:40.835Z,14.7
2022-10-11T14:17:41.367Z,14.7
2022-10-11T14:27:41.497Z,14.8
2022-10-11T14:37:42.146Z,14.6
2022-10-11T14:57:42.812Z,14.7
2022-10-11T15:07:42.868Z,14.6
2022-10-11T15:17:43.600Z,14.5
2022-10-11T15:27:43.875Z,14.5
2022-10-11T15:37:44.294Z,14.4
2022-10-11T15:47:44.537Z,14.4
2022-10-11T15:57:44.837Z,14.2
2022-10-11T16:17:45.374Z,13.8
2022-10-11T16:27:46.365Z,13.4
2022-10-11T16:37:46.846Z,13
2022-10-11T16:47:47.194Z,12.5
2022-10-11T16:57:47.833Z,12.1
2022-10-11T17:07:48.256Z,11.8
2022-10-11T17:17:48.545Z,11.4
2022-10-11T17:27:49.375Z,11.1
2022-10-11T17:37:49.401Z,10.7
2022-10-11T17:47:49.954Z,10.4
2022-10-11T17:57:50.038Z,10.2
2022-10-11T18:07:50.142Z,10
2022-10-11T18:17:50.967Z,9.9
2022-10-11T18:27:51.678Z,9.7
2022-10-11T18:37:52.507Z,9.8
2022-10-11T18:47:53.103Z,9.7
2022-10-11T18:57:53.818Z,9.6
2022-10-11T19:07:54.077Z,9.7
2022-10-11T19:17:54.404Z,9.9
2022-10-11T19:27:55.040Z,9.9
2022-10-11T19:37:55.264Z,9.8
2022-10-11T19:57:56.749Z,9.1
2022-10-11T20:07:57.524Z,9.1
2022-10-11T20:17:58.380Z,9.1
2022-10-11T20:37:58.946Z,9.1
2022-10-11T20:47:59.387Z,8.8
2022-10-11T20:57:59.976Z,8.7
2022-10-11T21:08:00.846Z,8.6
2022-10-11T21:18:01.512Z,8.3
2022-10-11T21:38:03.108Z,8.1
2022-10-11T21:48:03.819Z,7.9
2022-10-11T21:58:04.393Z,7.7
2022-10-11T22:08:04.638Z,7.6
2022-10-11T22:18:05.244Z,7.4
2022-10-11T22:28:05.353Z,7.2
2022-10-11T22:38:06.411Z,7.1
2022-10-11T22:48:07.397Z,6.9
2022-10-11T22:58:08.213Z,6.7
2022-10-11T23:08:08.467Z,6.6
2022-10-11T23:18:09.501Z,6.5
2022-10-11T23:28:09.927Z,6.5
2022-10-11T23:38:10.354Z,6.4
2022-10-11T23:48:10.609Z,6.4
2022-10-11T23:58:11.248Z,6.3
